createdAt,value
2018-09-30T08:11:36.629Z,10.30
2018-09-30T08:16:53.357Z,10.50
2018-09-30T08:19:21.721Z,10.50
2018-09-30T08:21:50.569Z,10.60
2018-09-30T08:24:18.944Z,10.80
2018-09-30T08:26:47.198Z,10.90
2018-09-30T08:29:15.513Z,11.00
2018-09-30T08:31:43.843Z,11.10
2018-09-30T08:34:13.245Z,11.20
2018-09-30T08:36:41.703Z,11.50
2018-09-30T08:39:15.226Z,11.60
2018-09-30T08:41:43.590Z,11.80
2018-09-30T08:44:12.269Z,11.80
2018-09-30T08:49:18.484Z,12.20
2018-09-30T08:51:47.404Z,12.30
2018-09-30T08:54:18.015Z,12.60
2018-09-30T08:56:57.222Z,12.90
2018-09-30T08:59:28.557Z,13.20
2018-09-30T09:01:57.297Z,13.40
2018-09-30T09:04:25.996Z,13.70
2018-09-30T09:06:55.325Z,14.10
2018-09-30T09:09:24.295Z,14.70
2018-09-30T09:11:52.806Z,15.40
2018-09-30T09:14:24.753Z,16.00
2018-09-30T09:16:53.430Z,16.10
2018-09-30T09:19:28.459Z,16.10
2018-09-30T09:21:57.254Z,16.40
2018-09-30T09:24:41.132Z,16.80
2018-09-30T09:27:12.689Z,17.60
2018-09-30T09:29:41.665Z,17.90
2018-09-30T09:32:12.315Z,18.20
2018-09-30T09:34:43.793Z,18.80
2018-09-30T09:37:12.215Z,18.80
2018-09-30T09:39:50.499Z,18.70
2018-09-30T09:45:11.269Z,19.40
2018-09-30T09:47:40.339Z,19.40
2018-09-30T09:50:09.089Z,19.40
2018-09-30T09:52:38.279Z,19.70
2018-09-30T09:57:44.918Z,20.10
2018-09-30T10:00:17.717Z,20.00
2018-09-30T10:02:46.507Z,19.50
2018-09-30T10:05:15.266Z,19.20
2018-09-30T10:07:44.575Z,18.90
2018-09-30T10:10:13.029Z,19.60
2018-09-30T10:12:41.840Z,19.50
2018-09-30T10:15:12.232Z,20.20
2018-09-30T10:17:42.985Z,20.00
2018-09-30T10:20:11.366Z,19.80
2018-09-30T10:22:40.608Z,19.60
2018-09-30T10:38:18.420Z,20.10
2018-09-30T10:40:47.545Z,19.90
2018-09-30T10:43:16.102Z,20.20
2018-09-30T10:45:44.601Z,20.20
2018-09-30T10:48:13.623Z,20.20
2018-09-30T10:50:41.981Z,19.90
2018-09-30T10:53:10.870Z,19.80
2018-09-30T10:58:21.219Z,20.30
2018-09-30T11:00:50.931Z,20.30
2018-09-30T11:03:19.722Z,20.50
2018-09-30T11:05:48.027Z,20.90
2018-09-30T11:08:20.209Z,20.80
2018-09-30T11:10:48.550Z,20.60
2018-09-30T11:15:54.671Z,20.80
2018-09-30T11:18:23.452Z,21.40
2018-09-30T11:20:54.897Z,21.50
2018-09-30T11:23:24.339Z,21.30
2018-09-30T11:25:52.933Z,21.20
2018-09-30T11:28:21.145Z,21.50
2018-09-30T11:31:36.635Z,21.90
2018-09-30T11:34:05.189Z,22.20
2018-09-30T11:36:34.514Z,22.00
2018-09-30T11:39:04.025Z,21.50
2018-09-30T11:41:40.514Z,21.10
2018-09-30T11:44:08.894Z,20.90
2018-09-30T11:46:37.298Z,20.90
2018-09-30T11:49:07.924Z,21.10
2018-09-30T11:51:36.846Z,21.50
2018-09-30T11:54:05.194Z,21.70
2018-09-30T11:56:34.924Z,21.90
2018-09-30T11:59:03.351Z,22.00
2018-09-30T12:01:31.605Z,22.00
2018-09-30T12:04:00.255Z,22.00
2018-09-30T12:06:28.706Z,22.00
2018-09-30T12:08:57.394Z,21.80
2018-09-30T12:11:29.154Z,21.30
2018-09-30T12:13:57.936Z,21.00
2018-09-30T12:16:26.469Z,20.80
2018-09-30T12:18:54.850Z,20.90
2018-09-30T12:21:25.954Z,21.20
2018-09-30T12:23:59.147Z,21.60
2018-09-30T12:29:09.174Z,21.30
2018-09-30T12:31:37.954Z,21.40
2018-09-30T12:34:10.168Z,21.80
2018-09-30T12:36:39.064Z,21.60
2018-09-30T12:39:09.203Z,21.20
2018-09-30T12:41:38.012Z,21.60
2018-09-30T12:44:06.860Z,21.90
2018-09-30T12:46:35.458Z,21.80
2018-09-30T12:49:04.406Z,21.20
2018-09-30T12:51:33.536Z,20.90
2018-09-30T12:54:01.859Z,21.10
2018-09-30T12:56:30.279Z,21.50
2018-09-30T12:59:00.180Z,21.60
2018-09-30T13:01:29.328Z,21.60
2018-09-30T13:04:05.402Z,21.60
2018-09-30T13:06:33.649Z,21.30
2018-09-30T13:09:03.453Z,21.80
2018-09-30T13:11:33.200Z,22.20
2018-09-30T13:14:01.622Z,21.90
2018-09-30T13:16:30.556Z,21.40
2018-09-30T13:18:58.950Z,21.70
2018-09-30T13:21:43.098Z,21.70
2018-09-30T13:24:18.589Z,21.50
2018-09-30T13:26:47.014Z,21.30
2018-09-30T13:29:15.676Z,21.20
2018-09-30T13:31:47.609Z,21.40
2018-09-30T13:34:16.346Z,21.30
2018-09-30T13:36:45.250Z,21.20
2018-09-30T13:39:15.880Z,21.00
2018-09-30T13:44:44.924Z,20.90
2018-09-30T13:47:13.444Z,20.90
2018-09-30T13:49:45.051Z,20.90
2018-09-30T13:52:13.391Z,20.90
2018-09-30T13:54:42.667Z,20.60
2018-09-30T13:57:10.976Z,20.40
2018-09-30T13:59:39.160Z,20.30
2018-09-30T14:02:08.030Z,20.10
2018-09-30T14:04:36.894Z,19.80
2018-09-30T14:07:05.668Z,19.80
2018-09-30T14:09:34.115Z,19.70
2018-09-30T14:12:02.417Z,19.60
2018-09-30T14:14:30.915Z,19.40
2018-09-30T14:16:59.468Z,19.30
2018-09-30T14:19:28.711Z,19.30
2018-09-30T14:21:57.659Z,19.20
2018-09-30T14:24:27.133Z,19.10
2018-09-30T14:26:55.524Z,19.10
2018-09-30T14:29:23.667Z,19.10
2018-09-30T14:31:52.093Z,19.10
2018-09-30T14:34:20.388Z,19.00
2018-09-30T14:36:48.531Z,19.00
2018-09-30T14:39:16.913Z,18.90
2018-09-30T14:41:45.104Z,18.80
2018-09-30T14:44:13.408Z,18.60
2018-09-30T14:46:41.585Z,18.50
2018-09-30T14:49:09.762Z,18.40
2018-09-30T14:51:38.051Z,18.50
2018-09-30T14:54:07.284Z,18.40
2018-09-30T14:56:36.432Z,18.20
2018-09-30T14:59:04.716Z,18.10
2018-09-30T15:01:32.967Z,18.10
2018-09-30T15:04:01.244Z,18.00
2018-09-30T15:06:29.551Z,17.90
2018-09-30T15:08:57.799Z,17.80
2018-09-30T15:11:28.371Z,17.80
2018-09-30T15:13:56.647Z,17.70
2018-09-30T15:16:24.877Z,17.70
2018-09-30T15:18:53.107Z,17.50
2018-09-30T15:21:21.633Z,17.50
2018-09-30T15:23:49.953Z,17.40
2018-09-30T15:26:18.147Z,17.40
2018-09-30T15:28:46.543Z,17.30
2018-09-30T15:31:14.803Z,17.30
2018-09-30T15:33:43.192Z,17.20
2018-09-30T15:36:11.498Z,17.20
2018-09-30T15:38:39.751Z,17.10
2018-09-30T15:41:08.022Z,17.00
2018-09-30T15:43:36.262Z,17.00
2018-09-30T15:46:04.639Z,17.00
2018-09-30T15:48:32.874Z,16.90
2018-09-30T15:51:01.083Z,16.90
2018-09-30T15:53:29.366Z,16.80
2018-09-30T15:55:57.626Z,16.70
2018-09-30T15:58:27.464Z,16.70
2018-09-30T16:01:03.925Z,16.70
2018-09-30T16:03:32.157Z,16.60
2018-09-30T16:06:00.443Z,16.50
2018-09-30T16:08:28.675Z,16.50
2018-09-30T16:10:56.853Z,16.30
2018-09-30T16:13:25.093Z,16.30
2018-09-30T16:15:53.509Z,16.20
2018-09-30T16:18:38.455Z,16.10
2018-09-30T16:21:24.360Z,16.10
2018-09-30T16:23:52.513Z,15.90
2018-09-30T16:26:29.027Z,15.80
2018-09-30T16:28:57.178Z,15.70
2018-09-30T16:31:25.538Z,15.60
2018-09-30T16:33:53.724Z,15.50
2018-09-30T16:36:21.921Z,15.50
2018-09-30T16:38:50.172Z,15.40
2018-09-30T16:41:18.446Z,15.30
2018-09-30T16:43:46.740Z,15.20
2018-09-30T16:46:14.985Z,15.00
2018-09-30T16:48:50.111Z,15.00
2018-09-30T16:51:18.334Z,14.90
2018-09-30T16:53:46.549Z,14.70
2018-09-30T16:59:19.809Z,14.40
2018-09-30T17:01:48.031Z,14.10
2018-09-30T17:04:16.306Z,13.90
2018-09-30T17:06:44.730Z,13.80
2018-09-30T17:09:12.878Z,13.70
2018-09-30T17:11:41.153Z,13.60
2018-09-30T17:14:09.680Z,13.40
2018-09-30T17:16:38.013Z,13.30
2018-09-30T17:19:06.361Z,13.10
2018-09-30T17:21:34.522Z,13.00
2018-09-30T17:24:02.777Z,12.80
2018-09-30T17:26:31.049Z,12.70
2018-09-30T17:28:59.341Z,12.60
2018-09-30T17:31:27.618Z,12.50
2018-09-30T17:33:55.861Z,12.40
2018-09-30T17:36:24.040Z,12.30
2018-09-30T17:38:52.243Z,12.30
2018-09-30T17:41:20.515Z,12.20
2018-09-30T17:43:48.742Z,12.20
2018-09-30T17:46:16.935Z,12.10
2018-09-30T17:48:45.140Z,12.00
2018-09-30T17:51:13.637Z,12.00
2018-09-30T17:53:43.773Z,12.00
2018-09-30T17:56:12.746Z,11.90
2018-09-30T17:58:40.940Z,11.90
2018-09-30T18:01:09.177Z,11.80
2018-09-30T18:03:37.435Z,11.80
2018-09-30T18:06:05.678Z,11.80
2018-09-30T18:08:33.882Z,11.70
2018-09-30T18:11:02.181Z,11.60
2018-09-30T18:13:30.910Z,11.60
2018-09-30T18:15:59.125Z,11.50
2018-09-30T18:18:27.362Z,11.40
2018-09-30T18:20:55.647Z,11.40
2018-09-30T18:23:23.850Z,11.60
2018-09-30T18:25:52.282Z,11.70
2018-09-30T18:28:20.543Z,11.90
2018-09-30T18:30:48.922Z,11.90
2018-09-30T18:33:17.187Z,12.00
2018-09-30T18:35:46.060Z,12.10
2018-09-30T18:38:14.296Z,12.20
2018-09-30T18:40:47.727Z,12.30
2018-09-30T18:43:15.999Z,12.40
2018-09-30T18:45:44.582Z,12.50
2018-09-30T18:48:12.884Z,12.50
2018-09-30T18:50:41.803Z,12.50
2018-09-30T18:53:10.154Z,12.40
2018-09-30T18:55:38.401Z,12.30
2018-09-30T18:58:06.673Z,12.30
2018-09-30T19:00:34.870Z,12.20
2018-09-30T19:03:03.600Z,12.20
2018-09-30T19:05:32.064Z,12.10
2018-09-30T19:08:00.445Z,12.10
2018-09-30T19:10:28.773Z,12.10
2018-09-30T19:12:57.205Z,12.10
2018-09-30T19:15:25.596Z,12.10
2018-09-30T19:17:54.481Z,12.20
2018-09-30T19:20:22.828Z,12.20
2018-09-30T19:22:51.989Z,12.20
2018-09-30T19:25:20.382Z,12.10
2018-09-30T19:27:48.765Z,12.20
2018-09-30T19:30:17.181Z,12.20
2018-09-30T19:32:45.477Z,12.10
2018-09-30T19:35:14.048Z,12.10
2018-09-30T19:37:42.435Z,12.10
2018-09-30T19:40:10.887Z,11.90
2018-09-30T19:42:39.227Z,11.80
2018-09-30T19:45:07.867Z,11.60
2018-09-30T19:47:36.223Z,11.50
2018-09-30T19:50:04.693Z,11.40
2018-09-30T19:52:33.013Z,11.20
2018-09-30T19:55:01.381Z,11.10
2018-09-30T19:57:45.281Z,10.90
2018-09-30T20:00:14.234Z,10.70
2018-09-30T20:02:42.525Z,10.50
2018-09-30T20:05:10.872Z,10.30
2018-09-30T20:07:39.122Z,10.20
2018-09-30T20:10:07.381Z,10.10
2018-09-30T20:12:35.655Z,10.00
2018-09-30T20:15:04.045Z,9.90
2018-09-30T20:17:32.342Z,9.80
2018-09-30T20:20:00.586Z,9.80
2018-09-30T20:22:28.965Z,9.70
2018-09-30T20:24:57.288Z,9.70
2018-09-30T20:27:25.552Z,9.60
2018-09-30T20:29:54.308Z,9.60
2018-09-30T20:32:22.534Z,9.50
2018-09-30T20:34:50.841Z,9.40
2018-09-30T20:37:19.033Z,9.40
2018-09-30T20:39:47.288Z,9.30
2018-09-30T20:42:15.489Z,9.30
2018-09-30T20:44:43.763Z,9.20
2018-09-30T20:47:12.151Z,9.10
2018-09-30T20:49:41.020Z,9.00
2018-09-30T20:52:09.665Z,9.00
2018-09-30T20:54:38.787Z,8.90
2018-09-30T20:57:07.141Z,8.80
2018-09-30T20:59:36.415Z,8.80
2018-09-30T21:02:04.790Z,8.80
2018-09-30T21:04:33.091Z,8.80
2018-09-30T21:07:01.827Z,8.70
2018-09-30T21:09:30.237Z,8.70
2018-09-30T21:11:58.555Z,8.70
2018-09-30T21:14:27.231Z,8.70
2018-09-30T21:16:56.061Z,8.60
2018-09-30T21:19:24.314Z,8.60
2018-09-30T21:21:52.594Z,8.60
2018-09-30T21:24:21.327Z,8.60
2018-09-30T21:26:49.725Z,8.60
2018-09-30T21:29:18.192Z,8.60
2018-09-30T21:31:46.593Z,8.50
2018-09-30T21:34:14.859Z,8.40
2018-09-30T21:36:43.025Z,8.40
2018-09-30T21:39:11.922Z,8.30
2018-09-30T21:41:40.189Z,8.40
2018-09-30T21:44:08.624Z,8.40
2018-09-30T21:46:37.155Z,8.40
2018-09-30T21:49:05.530Z,8.40
2018-09-30T21:51:34.412Z,8.30
2018-09-30T21:54:02.684Z,8.40
2018-09-30T21:56:30.910Z,8.30
2018-09-30T21:58:59.148Z,8.50
2018-09-30T22:01:29.647Z,8.40
2018-09-30T22:03:57.688Z,8.30
2018-09-30T22:06:25.866Z,8.20
2018-09-30T22:08:54.074Z,8.20
2018-09-30T22:11:22.317Z,8.20
2018-09-30T22:13:50.558Z,8.10
2018-09-30T22:16:18.882Z,8.10
2018-09-30T22:18:47.042Z,8.10
2018-09-30T22:21:15.261Z,8.10
2018-09-30T22:23:43.496Z,8.10
2018-09-30T22:26:11.666Z,8.10
2018-09-30T22:28:39.977Z,8.10
2018-09-30T22:31:08.148Z,8.10
2018-09-30T22:33:36.346Z,8.00
2018-09-30T22:36:04.604Z,8.00
2018-09-30T22:38:32.914Z,7.90
2018-09-30T22:41:01.137Z,7.90
2018-09-30T22:43:29.320Z,7.90
2018-09-30T22:45:58.108Z,7.80
2018-09-30T22:48:26.962Z,7.80
2018-09-30T22:50:55.152Z,7.70
2018-09-30T22:53:23.455Z,7.60
2018-09-30T22:55:51.524Z,7.60
2018-09-30T22:58:19.744Z,7.60
2018-09-30T23:00:47.928Z,7.60
2018-09-30T23:03:16.226Z,7.60
2018-09-30T23:05:44.428Z,7.60
2018-09-30T23:08:12.665Z,7.50
2018-09-30T23:10:40.886Z,7.50
2018-09-30T23:13:09.200Z,7.60
2018-09-30T23:15:37.383Z,7.60
2018-09-30T23:18:05.582Z,7.70
2018-09-30T23:20:33.764Z,7.80
2018-09-30T23:23:01.995Z,8.00
2018-09-30T23:25:30.158Z,8.10
2018-09-30T23:27:59.768Z,8.20
2018-09-30T23:30:27.908Z,8.20
2018-09-30T23:32:56.170Z,8.30
2018-09-30T23:35:24.566Z,8.30
2018-09-30T23:37:53.323Z,8.30
2018-09-30T23:40:21.515Z,8.40
2018-09-30T23:42:49.697Z,8.50
2018-09-30T23:45:17.832Z,8.50
2018-09-30T23:47:46.044Z,8.60
2018-09-30T23:50:14.952Z,8.50
2018-09-30T23:52:43.183Z,8.50
2018-09-30T23:55:11.383Z,8.50
2018-09-30T23:57:39.752Z,8.40
